createdAt,value
2022-10-03T00:00:59.267Z,100.00
2022-10-03T00:06:36.510Z,100.00
2022-10-03T00:12:04.061Z,100.00
2022-10-03T00:17:37.900Z,100.00
2022-10-03T00:23:08.865Z,100.00
2022-10-03T00:29:19.028Z,100.00
2022-10-03T00:34:52.733Z,100.00
2022-10-03T00:40:47.784Z,100.00
2022-10-03T00:46:24.987Z,100.00
2022-10-03T00:52:29.754Z,100.00
2022-10-03T00:58:29.175Z,100.00
2022-10-03T01:04:06.160Z,100.00
2022-10-03T01:10:14.258Z,100.00
2022-10-03T01:15:56.353Z,100.00
2022-10-03T01:22:02.107Z,100.00
2022-10-03T01:27:59.274Z,100.00
2022-10-03T01:33:44.581Z,100.00
2022-10-03T01:39:15.820Z,100.00
2022-10-03T01:44:43.749Z,100.00
2022-10-03T01:50:05.603Z,100.00
2022-10-03T01:55:36.297Z,100.00
2022-10-03T02:01:01.207Z,100.00
2022-10-03T02:06:35.390Z,100.00
2022-10-03T02:12:04.172Z,100.00
2022-10-03T02:17:58.305Z,100.00
2022-10-03T02:23:26.225Z,100.00
2022-10-03T02:29:03.252Z,100.00
2022-10-03T02:34:39.950Z,100.00
2022-10-03T02:40:20.733Z,100.00
2022-10-03T02:46:10.564Z,100.00
2022-10-03T02:51:51.451Z,100.00
2022-10-03T02:57:50.803Z,100.00
2022-10-03T03:03:38.963Z,100.00
2022-10-03T03:09:19.101Z,100.00
2022-10-03T03:15:25.949Z,100.00
2022-10-03T03:21:10.603Z,100.00
2022-10-03T03:26:50.655Z,100.00
2022-10-03T03:32:29.184Z,100.00
2022-10-03T03:37:54.020Z,100.00
2022-10-03T03:43:24.853Z,100.00
2022-10-03T03:48:53.969Z,100.00
2022-10-03T03:54:36.431Z,100.00
2022-10-03T04:00:22.458Z,100.00
2022-10-03T04:06:08.642Z,100.00
2022-10-03T04:11:42.966Z,100.00
2022-10-03T04:17:36.184Z,100.00
2022-10-03T04:23:06.651Z,100.00
2022-10-03T04:29:06.445Z,100.00
2022-10-03T04:34:33.934Z,100.00
2022-10-03T04:40:08.461Z,100.00
2022-10-03T04:45:45.808Z,100.00
2022-10-03T04:51:54.612Z,100.00
2022-10-03T04:57:47.252Z,100.00
2022-10-03T05:03:17.139Z,100.00
2022-10-03T05:08:55.523Z,100.00
2022-10-03T05:14:28.384Z,100.00
2022-10-03T05:20:02.368Z,100.00
2022-10-03T05:25:48.641Z,100.00
2022-10-03T05:31:44.314Z,100.00
2022-10-03T05:37:09.227Z,100.00
2022-10-03T05:42:49.431Z,100.00
2022-10-03T05:48:27.895Z,100.00
2022-10-03T05:54:20.750Z,100.00
2022-10-03T06:00:13.583Z,100.00
2022-10-03T06:05:58.264Z,100.00
2022-10-03T06:12:00.035Z,100.00
2022-10-03T06:17:46.767Z,100.00
2022-10-03T06:23:14.322Z,100.00
2022-10-03T06:28:54.847Z,100.00
2022-10-03T06:34:25.439Z,100.00
2022-10-03T06:40:16.491Z,100.00
2022-10-03T06:45:59.620Z,100.00
2022-10-03T06:51:38.437Z,100.00
2022-10-03T06:57:32.766Z,100.00
2022-10-03T07:03:31.477Z,100.00
2022-10-03T07:09:38.120Z,100.00
2022-10-03T07:16:02.219Z,100.00
2022-10-03T07:21:27.578Z,100.00
2022-10-03T07:27:24.559Z,100.00
2022-10-03T07:33:16.757Z,100.00
2022-10-03T07:38:47.844Z,100.00
2022-10-03T07:44:34.851Z,100.00
2022-10-03T07:50:18.905Z,100.00
2022-10-03T07:56:09.349Z,100.00
2022-10-03T08:01:40.992Z,100.00
2022-10-03T08:07:11.127Z,100.00
2022-10-03T08:12:51.802Z,100.00
2022-10-03T08:18:43.991Z,100.00
2022-10-03T08:24:27.105Z,100.00
2022-10-03T08:30:11.987Z,100.00
2022-10-03T08:35:55.567Z,100.00
2022-10-03T08:41:44.486Z,100.00
2022-10-03T08:47:27.864Z,100.00
2022-10-03T08:53:08.746Z,100.00
2022-10-03T08:58:54.603Z,100.00
2022-10-03T09:04:22.137Z,100.00
2022-10-03T09:10:14.515Z,100.00
2022-10-03T09:15:45.547Z,100.00
2022-10-03T09:21:13.395Z,100.00
2022-10-03T09:27:12.771Z,100.00
2022-10-03T09:32:43.415Z,100.00
2022-10-03T09:38:38.735Z,100.00
2022-10-03T09:44:09.326Z,100.00
2022-10-03T09:50:05.363Z,100.00
2022-10-03T09:55:44.842Z,100.00
2022-10-03T10:01:09.672Z,100.00
2022-10-03T10:07:08.916Z,100.00
2022-10-03T10:12:43.617Z,100.00
2022-10-03T10:18:59.669Z,100.00
2022-10-03T10:24:30.333Z,100.00
2022-10-03T10:30:36.944Z,100.00
2022-10-03T10:36:43.950Z,100.00
2022-10-03T10:42:30.447Z,99.34
2022-10-03T10:48:19.062Z,100.00
2022-10-03T10:53:59.070Z,100.00
2022-10-03T11:00:12.205Z,100.00
2022-10-03T11:05:43.258Z,100.00
2022-10-03T11:11:26.849Z,98.32
2022-10-03T11:17:17.702Z,92.57
2022-10-03T11:23:01.073Z,85.18
2022-10-03T11:28:38.521Z,79.18
2022-10-03T11:34:37.849Z,73.95
2022-10-03T11:40:27.313Z,75.51
2022-10-03T11:46:03.415Z,75.48
2022-10-03T11:51:43.637Z,73.17
2022-10-03T11:57:26.972Z,69.47
2022-10-03T12:03:16.588Z,65.87
2022-10-03T12:08:42.385Z,65.13
2022-10-03T12:14:19.810Z,63.00
2022-10-03T12:19:53.401Z,61.59
2022-10-03T12:25:20.387Z,61.41
2022-10-03T12:30:47.983Z,60.75
2022-10-03T12:36:14.119Z,61.33
2022-10-03T12:42:06.269Z,60.37
2022-10-03T12:47:56.681Z,60.94
2022-10-03T12:53:18.632Z,59.39
2022-10-03T12:58:44.176Z,55.61
2022-10-03T13:04:27.761Z,51.25
2022-10-03T13:10:01.612Z,50.73
2022-10-03T13:15:42.097Z,50.01
2022-10-03T13:27:20.216Z,50.28
2022-10-03T13:32:47.241Z,50.98
2022-10-03T13:38:11.853Z,51.28
2022-10-03T13:43:38.517Z,52.18
2022-10-03T13:49:02.752Z,53.29
2022-10-03T13:54:54.807Z,52.34
2022-10-03T14:00:21.020Z,52.91
2022-10-03T14:06:18.003Z,51.91
2022-10-03T14:12:01.491Z,52.45
2022-10-03T14:17:51.507Z,51.95
2022-10-03T14:23:16.004Z,52.15
2022-10-03T14:28:47.910Z,52.47
2022-10-03T14:34:28.006Z,52.74
2022-10-03T14:40:14.693Z,52.40
2022-10-03T14:45:52.472Z,52.20
2022-10-03T14:51:29.910Z,54.39
2022-10-03T14:56:53.919Z,54.42
2022-10-03T15:02:37.479Z,53.73
2022-10-03T15:07:59.405Z,55.37
2022-10-03T15:13:24.956Z,55.15
2022-10-03T15:18:53.817Z,55.79
2022-10-03T15:24:25.301Z,55.49
2022-10-03T15:29:54.157Z,56.21
2022-10-03T15:35:24.839Z,56.23
2022-10-03T15:40:52.763Z,56.22
2022-10-03T15:46:33.971Z,56.03
2022-10-03T15:51:59.755Z,57.32
2022-10-03T15:57:29.541Z,58.25
2022-10-03T16:03:00.428Z,59.42
2022-10-03T16:08:28.077Z,59.82
2022-10-03T16:14:14.941Z,59.76
2022-10-03T16:19:48.529Z,60.93
2022-10-03T16:25:21.708Z,60.80
2022-10-03T16:30:56.944Z,61.50
2022-10-03T16:36:20.279Z,62.22
2022-10-03T16:41:42.850Z,62.74
2022-10-03T16:47:06.791Z,63.84
2022-10-03T16:52:35.559Z,64.74
2022-10-03T16:58:04.324Z,65.46
2022-10-03T17:03:32.752Z,66.10
2022-10-03T17:08:59.220Z,67.97
2022-10-03T17:14:22.364Z,69.62
2022-10-03T17:19:58.156Z,69.77
2022-10-03T17:25:49.392Z,70.72
2022-10-03T17:31:24.980Z,71.07
2022-10-03T17:36:55.949Z,71.18
2022-10-03T17:42:37.050Z,72.32
2022-10-03T17:48:09.224Z,73.75
2022-10-03T17:53:36.598Z,74.73
2022-10-03T17:59:07.832Z,76.09
2022-10-03T18:04:42.013Z,77.93
2022-10-03T18:10:07.368Z,78.72
2022-10-03T18:16:06.343Z,81.04
2022-10-03T18:21:42.148Z,81.43
2022-10-03T18:27:16.378Z,82.36
2022-10-03T18:32:39.986Z,81.58
2022-10-03T18:38:14.750Z,82.58
2022-10-03T18:43:38.061Z,83.19
2022-10-03T18:49:31.778Z,83.49
2022-10-03T18:55:04.815Z,85.85
2022-10-03T19:00:31.140Z,85.36
2022-10-03T19:06:04.270Z,86.19
2022-10-03T19:11:39.310Z,87.73
2022-10-03T19:17:12.268Z,87.56
2022-10-03T19:22:39.753Z,88.64
2022-10-03T19:28:25.765Z,88.87
2022-10-03T19:33:52.010Z,89.08
2022-10-03T19:39:17.412Z,89.24
2022-10-03T19:44:40.245Z,90.29
2022-10-03T19:50:12.978Z,91.03
2022-10-03T19:55:35.697Z,91.29
2022-10-03T20:01:00.180Z,91.21
2022-10-03T20:06:29.776Z,91.91
2022-10-03T20:12:02.692Z,92.32
2022-10-03T20:17:25.092Z,93.17
2022-10-03T20:22:47.058Z,94.45
2022-10-03T20:28:22.731Z,95.35
2022-10-03T20:33:44.731Z,94.83
2022-10-03T20:39:28.291Z,94.78
2022-10-03T20:45:01.424Z,94.45
2022-10-03T20:50:25.727Z,93.96
2022-10-03T20:55:50.199Z,94.48
2022-10-03T21:01:17.441Z,93.73
2022-10-03T21:06:57.960Z,94.02
2022-10-03T21:12:25.173Z,94.29
2022-10-03T21:17:49.005Z,94.43
2022-10-03T21:23:20.466Z,93.88
2022-10-03T21:28:42.336Z,94.10
2022-10-03T21:34:16.300Z,94.92
2022-10-03T21:40:14.326Z,95.37
2022-10-03T21:45:53.643Z,95.24
2022-10-03T21:51:28.720Z,95.51
2022-10-03T21:57:01.238Z,95.65
2022-10-03T22:02:58.429Z,96.96
2022-10-03T22:08:29.018Z,96.73
2022-10-03T22:13:56.830Z,96.72
2022-10-03T22:19:25.875Z,97.57
2022-10-03T22:25:00.022Z,98.65
2022-10-03T22:30:22.449Z,98.72
2022-10-03T22:35:55.272Z,99.34
2022-10-03T22:41:24.057Z,99.62
2022-10-03T22:46:50.781Z,99.46
2022-10-03T22:52:24.206Z,100.00
2022-10-03T22:57:46.858Z,100.00
2022-10-03T23:03:14.492Z,100.00
2022-10-03T23:08:36.247Z,100.00
2022-10-03T23:14:06.412Z,100.00
2022-10-03T23:19:46.218Z,100.00
2022-10-03T23:25:24.508Z,100.00
2022-10-03T23:30:50.554Z,100.00
2022-10-03T23:36:22.184Z,100.00
2022-10-03T23:41:45.241Z,100.00
2022-10-03T23:47:11.655Z,100.00
2022-10-03T23:52:47.251Z,100.00
2022-10-03T23:58:20.641Z,100.00
